Cranberry, North Carolina
Current Conditions -  °F | °C
As of 7:15 AM on Sunday 23 Nov 2014 (Local Time) from KTNB Reporting Station
Overcast Overcast  
Wind Chill: 42°   Ceiling: 1000
Heat Index: 42°   Visibility: 10mi
Dew Point: 42°   Wind: 0mph
Humidity: 98%   Direction: NA
Pressure: 30.2"   Gusts: NA
Location:  36.1731°N, 81.9572°W
Report Text: KTNB 231215Z AUTO 00000KT 10SM OVC010 06/05 A3020 RMK AO2 T00570054
Loading
Personal Weather Stations






























Interactive Weather Map New forecast layout! Learn more

10-Day Weather Forecast

Advertisements
Track Severe Weather on mobile